De Sui — BSFU — position and weather

sailwx.info

Track history (hours):
 
Tides and Currents Weather Stations Pressure Air Temp Water Temp Dewpoint Dewpoint Depression Visibility Wind Speed Wind Dir Waves Ship Positions

De Sui

Last reported at 2016-Jul-28 11:28 UTC. Time now 2016-Jul-28 12:26 UTC.
Position N 23°03' E 113°21'.

Length 65 m; draft 4.5 m.

Type: Towing. MMSI: 413070000.

Date/timePositionNaut miles runAvg speedWind from/ knotsBaromVisibWave heightAir tempDewpointWater temp
2016-Jul-28 11:28N 23°03' E 113°21'0 0.0
2016-Jul-28 08:16N 23°03' E 113°21'0 0.0
2016-Jul-28 07:27N 23°03' E 113°21'0 0.0
2016-Jul-28 04:33N 23°03' E 113°21'0 0.0
2016-Jul-28 01:30N 23°03' E 113°21'0 0.0
2016-Jul-28 00:07N 23°03' E 113°21'0 0.0
2016-Jul-27 17:25N 23°03' E 113°21'0 0.0
2016-Jul-27 16:25N 23°03' E 113°21'0 0.0
2016-Jul-27 11:25N 23°03' E 113°21'0 0.0
2016-Jul-27 10:13N 23°03' E 113°21'0 0.0
2016-Jul-27 05:31N 23°03' E 113°21'0 0.0
2016-Jul-26 23:13N 23°03' E 113°21'0 0.0
2016-Jul-26 22:31N 23°03' E 113°21'0 0.0
2016-Jul-26 20:31N 23°03' E 113°21'0 0.0
2016-Jul-26 19:31N 23°03' E 113°21'0 0.0
2016-Jul-26 18:07N 23°03' E 113°21'0 0.0
2016-Jul-26 16:25N 23°03' E 113°21'0 0.0
2016-Jul-26 14:25N 23°03' E 113°21'0 0.0
2016-Jul-26 09:13N 23°03' E 113°21'0 0.0
2016-Jul-26 04:31N 23°03' E 113°21'0 0.0
2016-Jul-26 00:19N 23°03' E 113°21'0 0.0
2016-Jul-25 22:31N 23°03' E 113°21'0 0.0
2016-Jul-25 21:25N 23°03' E 113°21'0 0.0
2016-Jul-25 20:25N 23°03' E 113°21'0 0.0
2016-Jul-25 17:31N 23°03' E 113°21'0 0.0
2016-Jul-25 16:07N 23°03' E 113°21'0 0.0
2016-Jul-25 11:25N 23°03' E 113°21'0 0.0
2016-Jul-25 10:19N 23°03' E 113°21'0 0.0
2016-Jul-25 09:07N 23°03' E 113°21'0 0.0
2016-Jul-25 08:19N 23°03' E 113°21'0 0.0
2016-Jul-25 02:25N 23°03' E 113°21'0 0.0
2016-Jul-25 01:31N 23°03' E 113°21'0 0.0
2016-Jul-24 19:25N 23°03' E 113°21'0 0.0
2016-Jul-24 15:25N 23°03' E 113°21'0 0.0
2016-Jul-24 11:25N 23°03' E 113°21'0 0.0
2016-Jul-24 10:31N 23°03' E 113°21'0 0.0
2016-Jul-24 09:25N 23°03' E 113°21'0 0.0
2016-Jul-24 07:31N 23°03' E 113°21'0 0.0
2016-Jul-24 06:13N 23°03' E 113°21'0 0.0
2016-Jul-24 05:31N 23°03' E 113°21'0 0.0
2016-Jul-24 04:31N 23°03' E 113°21'0 0.0
2016-Jul-24 03:31N 23°03' E 113°21'0 0.0
2016-Jul-24 02:31N 23°03' E 113°21'0 0.0
2016-Jul-23 21:13N 23°03' E 113°21'0 0.0
2016-Jul-23 19:31N 23°03' E 113°21'0 0.0
2016-Jul-23 18:25N 23°03' E 113°21'0 0.0
2016-Jul-23 16:25N 23°03' E 113°21'0 0.0
2016-Jul-23 15:31N 23°03' E 113°21'0 0.0
2016-Jul-23 12:19N 23°03' E 113°21'0 0.0
2016-Jul-23 06:13N 23°03' E 113°21'0 0.0
2016-Jul-22 22:13N 23°03' E 113°21'0 0.0
2016-Jul-22 15:25N 23°03' E 113°21'0 0.0
2016-Jul-22 14:31N 23°03' E 113°21'0 0.0
2016-Jul-22 13:25N 23°03' E 113°21'0 0.0
2016-Jul-22 11:13N 23°03' E 113°21'0 0.0
2016-Jul-22 09:13N 23°03' E 113°21'0 0.0
2016-Jul-22 08:25N 23°03' E 113°21'0 0.0
2016-Jul-22 03:25N 23°03' E 113°21'0 0.0
2016-Jul-22 01:19N 23°03' E 113°21'0 0.0
2016-Jul-22 00:13N 23°03' E 113°21'0 0.0
2016-Jul-21 20:07N 23°03' E 113°21'0 0.0
2016-Jul-21 15:25N 23°03' E 113°21'0 0.0
2016-Jul-21 14:19N 23°03' E 113°21'0 0.0
2016-Jul-21 13:13N 23°03' E 113°21'0 0.0
2016-Jul-21 12:31N 23°03' E 113°21'0 0.0
2016-Jul-21 08:19N 23°03' E 113°21'0 0.0
2016-Jul-21 05:31N 23°03' E 113°21'0 0.0
2016-Jul-21 04:31N 23°03' E 113°21'0 0.0
2016-Jul-21 00:25N 23°03' E 113°21'0 0.0
2016-Jul-20 22:19N 23°03' E 113°21'0 0.0
2016-Jul-20 21:25N 23°03' E 113°21'0 0.0
2016-Jul-20 14:07N 23°03' E 113°21'0 0.0
2016-Jul-20 12:31N 23°03' E 113°21'0 0.0
2016-Jul-20 11:25N 23°03' E 113°21'2 0.6
2016-Jul-20 08:18N 23°02' E 113°23'6 6.9
2016-Jul-20 07:30N 23°05' E 113°28'53 6.3
2016-Jul-19 23:06N 22°15' E 113°48'5 7.2
2016-Jul-19 22:24N 22°10' E 113°47'5 4.6
2016-Jul-19 21:24N 22°06' E 113°47'2 0.2
2016-Jul-19 11:30N 22°04' E 113°45'1 0.2
2016-Jul-19 09:18N 22°04' E 113°45'910.7
2016-Jul-19 08:30N 22°12' E 113°48'4811.1
2016-Jul-19 04:12N 22°58' E 113°32'6 8.9
2016-Jul-19 03:30N 23°03' E 113°30'6 5.6
2016-Jul-19 02:24N 23°02' E 113°23'3 3.1
2016-Jul-19 01:30N 23°03' E 113°21'0 0.0
2016-Jul-18 22:24N 23°03' E 113°21'0 0.0
2016-Jul-18 21:24N 23°03' E 113°21'0 0.0
2016-Jul-18 20:24N 23°03' E 113°21'0 0.0
2016-Jul-18 15:33N 23°03' E 113°21'0 0.0
2016-Jul-18 14:33N 23°03' E 113°21'  
Track history (hours):
 
Tides and Currents Weather Stations Pressure Air Temp Water Temp Dewpoint Dewpoint Depression Visibility Wind Speed Wind Dir Waves Ship Positions

De Sui

Last reported at 2016-Jul-28 11:28 UTC. Time now 2016-Jul-28 12:26 UTC.
Position N 23°03' E 113°21'.

Length 65 m; draft 4.5 m.

Type: Towing. MMSI: 413070000.

Date/timePositionNaut miles runAvg speedWind from/ knotsBaromVisibWave heightAir tempDewpointWater temp
2016-Jul-28 11:28N 23°03' E 113°21'0 0.0
2016-Jul-28 08:16N 23°03' E 113°21'0 0.0
2016-Jul-28 07:27N 23°03' E 113°21'0 0.0
2016-Jul-28 04:33N 23°03' E 113°21'0 0.0
2016-Jul-28 01:30N 23°03' E 113°21'0 0.0
2016-Jul-28 00:07N 23°03' E 113°21'0 0.0
2016-Jul-27 17:25N 23°03' E 113°21'0 0.0
2016-Jul-27 16:25N 23°03' E 113°21'0 0.0
2016-Jul-27 11:25N 23°03' E 113°21'0 0.0
2016-Jul-27 10:13N 23°03' E 113°21'0 0.0
2016-Jul-27 05:31N 23°03' E 113°21'0 0.0
2016-Jul-26 23:13N 23°03' E 113°21'0 0.0
2016-Jul-26 22:31N 23°03' E 113°21'0 0.0
2016-Jul-26 20:31N 23°03' E 113°21'0 0.0
2016-Jul-26 19:31N 23°03' E 113°21'0 0.0
2016-Jul-26 18:07N 23°03' E 113°21'0 0.0
2016-Jul-26 16:25N 23°03' E 113°21'0 0.0
2016-Jul-26 14:25N 23°03' E 113°21'0 0.0
2016-Jul-26 09:13N 23°03' E 113°21'0 0.0
2016-Jul-26 04:31N 23°03' E 113°21'0 0.0
2016-Jul-26 00:19N 23°03' E 113°21'0 0.0
2016-Jul-25 22:31N 23°03' E 113°21'0 0.0
2016-Jul-25 21:25N 23°03' E 113°21'0 0.0
2016-Jul-25 20:25N 23°03' E 113°21'0 0.0
2016-Jul-25 17:31N 23°03' E 113°21'0 0.0
2016-Jul-25 16:07N 23°03' E 113°21'0 0.0
2016-Jul-25 11:25N 23°03' E 113°21'0 0.0
2016-Jul-25 10:19N 23°03' E 113°21'0 0.0
2016-Jul-25 09:07N 23°03' E 113°21'0 0.0
2016-Jul-25 08:19N 23°03' E 113°21'0 0.0
2016-Jul-25 02:25N 23°03' E 113°21'0 0.0
2016-Jul-25 01:31N 23°03' E 113°21'0 0.0
2016-Jul-24 19:25N 23°03' E 113°21'0 0.0
2016-Jul-24 15:25N 23°03' E 113°21'0 0.0
2016-Jul-24 11:25N 23°03' E 113°21'0 0.0
2016-Jul-24 10:31N 23°03' E 113°21'0 0.0
2016-Jul-24 09:25N 23°03' E 113°21'0 0.0
2016-Jul-24 07:31N 23°03' E 113°21'0 0.0
2016-Jul-24 06:13N 23°03' E 113°21'0 0.0
2016-Jul-24 05:31N 23°03' E 113°21'0 0.0
2016-Jul-24 04:31N 23°03' E 113°21'0 0.0
2016-Jul-24 03:31N 23°03' E 113°21'0 0.0
2016-Jul-24 02:31N 23°03' E 113°21'0 0.0
2016-Jul-23 21:13N 23°03' E 113°21'0 0.0
2016-Jul-23 19:31N 23°03' E 113°21'0 0.0
2016-Jul-23 18:25N 23°03' E 113°21'0 0.0
2016-Jul-23 16:25N 23°03' E 113°21'0 0.0
2016-Jul-23 15:31N 23°03' E 113°21'0 0.0
2016-Jul-23 12:19N 23°03' E 113°21'0 0.0
2016-Jul-23 06:13N 23°03' E 113°21'0 0.0
2016-Jul-22 22:13N 23°03' E 113°21'0 0.0
2016-Jul-22 15:25N 23°03' E 113°21'0 0.0
2016-Jul-22 14:31N 23°03' E 113°21'0 0.0
2016-Jul-22 13:25N 23°03' E 113°21'0 0.0
2016-Jul-22 11:13N 23°03' E 113°21'0 0.0
2016-Jul-22 09:13N 23°03' E 113°21'0 0.0
2016-Jul-22 08:25N 23°03' E 113°21'0 0.0
2016-Jul-22 03:25N 23°03' E 113°21'0 0.0
2016-Jul-22 01:19N 23°03' E 113°21'0 0.0
2016-Jul-22 00:13N 23°03' E 113°21'0 0.0
2016-Jul-21 20:07N 23°03' E 113°21'0 0.0
2016-Jul-21 15:25N 23°03' E 113°21'0 0.0
2016-Jul-21 14:19N 23°03' E 113°21'0 0.0
2016-Jul-21 13:13N 23°03' E 113°21'0 0.0
2016-Jul-21 12:31N 23°03' E 113°21'0 0.0
2016-Jul-21 08:19N 23°03' E 113°21'0 0.0
2016-Jul-21 05:31N 23°03' E 113°21'0 0.0
2016-Jul-21 04:31N 23°03' E 113°21'0 0.0
2016-Jul-21 00:25N 23°03' E 113°21'0 0.0
2016-Jul-20 22:19N 23°03' E 113°21'0 0.0
2016-Jul-20 21:25N 23°03' E 113°21'0 0.0
2016-Jul-20 14:07N 23°03' E 113°21'0 0.0
2016-Jul-20 12:31N 23°03' E 113°21'0 0.0
2016-Jul-20 11:25N 23°03' E 113°21'2 0.6
2016-Jul-20 08:18N 23°02' E 113°23'6 6.9
2016-Jul-20 07:30N 23°05' E 113°28'53 6.3
2016-Jul-19 23:06N 22°15' E 113°48'5 7.2
2016-Jul-19 22:24N 22°10' E 113°47'5 4.6
2016-Jul-19 21:24N 22°06' E 113°47'2 0.2
2016-Jul-19 11:30N 22°04' E 113°45'1 0.2
2016-Jul-19 09:18N 22°04' E 113°45'910.7
2016-Jul-19 08:30N 22°12' E 113°48'4811.1
2016-Jul-19 04:12N 22°58' E 113°32'6 8.9
2016-Jul-19 03:30N 23°03' E 113°30'6 5.6
2016-Jul-19 02:24N 23°02' E 113°23'3 3.1
2016-Jul-19 01:30N 23°03' E 113°21'0 0.0
2016-Jul-18 22:24N 23°03' E 113°21'0 0.0
2016-Jul-18 21:24N 23°03' E 113°21'0 0.0
2016-Jul-18 20:24N 23°03' E 113°21'0 0.0
2016-Jul-18 15:33N 23°03' E 113°21'0 0.0
2016-Jul-18 14:33N 23°03' E 113°21'  

Dump ship's entire track history